Time;durP1;ratioP1;P1;durP2;ratioP2;P2;SDS_P1;SDS_P2;PMS_P1;PMS_P2;Temp;Humidity;BMP_temperature;BMP_pressure;BME280_temperature;BME280_humidity;BME280_pressure;Samples;Min_cycle;Max_cycle;Signal;HPM_P1;HPM_P2
2023/03/11 00:01:03;;;;;;;11.32;1.00;;;28.10;52.60;;;;;;5072551;28;20080;-62
2023/03/11 00:03:29;;;;;;;12.50;1.85;;;28.10;51.90;;;;;;5072222;28;20097;-60
2023/03/11 00:05:57;;;;;;;15.80;1.30;;;28.10;52.50;;;;;;5071972;28;20084;-60
2023/03/11 00:08:25;;;;;;;3.45;0.70;;;28.10;52.70;;;;;;5072062;28;20116;-61
2023/03/11 00:10:54;;;;;;;10.50;1.20;;;27.80;52.70;;;;;;5072871;28;20091;-61
2023/03/11 00:13:21;;;;;;;13.25;1.25;;;27.60;53.70;;;;;;5074985;28;20152;-60
2023/03/11 00:15:49;;;;;;;10.52;1.20;;;27.50;53.60;;;;;;5071088;28;20087;-61
2023/03/11 00:18:16;;;;;;;6.85;1.10;;;27.50;54.20;;;;;;5071979;28;20075;-61
2023/03/11 00:20:45;;;;;;;5.95;0.77;;;27.60;54.30;;;;;;5074083;28;20102;-61
2023/03/11 00:23:14;;;;;;;21.52;1.73;;;27.60;54.00;;;;;;5073498;28;20089;-61
2023/03/11 00:25:43;;;;;;;22.42;10.25;;;27.70;54.20;;;;;;5072835;28;20073;-61
2023/03/11 00:28:10;;;;;;;31.30;15.20;;;27.60;54.30;;;;;;5070080;28;20365;-59
2023/03/11 00:30:38;;;;;;;15.15;9.00;;;27.60;54.80;;;;;;5071984;28;20137;-61
2023/03/11 00:33:06;;;;;;;33.97;11.15;;;27.60;54.50;;;;;;5072169;28;20093;-61
2023/03/11 00:35:33;;;;;;;15.52;1.63;;;27.50;54.70;;;;;;5075099;28;20130;-60
2023/03/11 00:38:03;;;;;;;18.42;4.53;;;27.40;55.20;;;;;;5072198;28;20324;-59
2023/03/11 00:40:31;;;;;;;17.92;1.10;;;27.20;55.40;;;;;;5072624;28;20107;-60
2023/03/11 00:42:58;;;;;;;11.27;1.70;;;27.10;56.20;;;;;;5069366;28;20071;-59
2023/03/11 00:45:25;;;;;;;9.27;1.20;;;26.90;56.30;;;;;;5071575;28;20087;-59
2023/03/11 00:47:52;;;;;;;9.82;1.00;;;26.80;56.30;;;;;;5068833;28;20080;-60
2023/03/11 00:50:23;;;;;;;13.50;1.38;;;26.60;57.00;;;;;;5071579;28;20521;-61
2023/03/11 00:52:50;;;;;;;7.25;1.40;;;26.40;57.40;;;;;;5072418;28;20466;-65
2023/03/11 00:55:19;;;;;;;14.05;1.50;;;26.30;57.60;;;;;;5068736;28;20082;-63
2023/03/11 00:57:46;;;;;;;11.93;1.77;;;26.30;57.80;;;;;;5072748;28;20150;-61
2023/03/11 01:00:17;;;;;;;19.88;1.55;;;26.30;58.20;;;;;;5072041;28;20086;-61
2023/03/11 01:02:44;;;;;;;22.25;2.17;;;26.20;58.10;;;;;;5072777;28;20071;-62
2023/03/11 01:05:11;;;;;;;13.05;1.40;;;26.10;58.40;;;;;;5069254;28;20088;-63
2023/03/11 01:07:37;;;;;;;12.13;1.10;;;26.10;58.90;;;;;;5071106;28;20202;-62
2023/03/11 01:10:06;;;;;;;9.23;0.95;;;26.00;59.20;;;;;;5071614;28;20109;-62
2023/03/11 01:12:33;;;;;;;11.13;1.10;;;26.00;59.10;;;;;;5072088;28;20069;-62
2023/03/11 01:14:59;;;;;;;8.32;1.38;;;26.00;59.40;;;;;;5071180;28;20107;-61
2023/03/11 01:17:26;;;;;;;15.32;1.65;;;25.90;59.40;;;;;;5071284;28;20529;-62
2023/03/11 01:19:52;;;;;;;21.70;1.73;;;25.90;59.50;;;;;;5072076;28;20064;-62
2023/03/11 01:22:18;;;;;;;15.38;1.70;;;25.80;59.70;;;;;;5070004;28;20079;-60
2023/03/11 01:24:45;;;;;;;45.42;3.78;;;25.70;59.90;;;;;;5070734;28;20429;-61
2023/03/11 01:27:11;;;;;;;11.07;1.80;;;25.60;60.30;;;;;;5072145;28;20107;-62
2023/03/11 01:29:38;;;;;;;16.23;1.40;;;25.50;60.30;;;;;;5070053;28;20076;-64
2023/03/11 01:32:05;;;;;;;30.52;2.00;;;25.50;60.80;;;;;;5073596;28;20120;-64
2023/03/11 01:34:34;;;;;;;92.22;5.60;;;25.40;61.30;;;;;;5073807;28;20083;-58
2023/03/11 01:37:02;;;;;;;62.97;3.20;;;25.30;61.50;;;;;;5071345;28;20120;-61
2023/03/11 01:39:29;;;;;;;26.58;2.00;;;25.30;61.90;;;;;;5068258;28;20146;-60
2023/03/11 01:41:55;;;;;;;17.83;1.98;;;25.20;62.10;;;;;;5072396;28;20095;-61
2023/03/11 01:44:22;;;;;;;17.38;1.92;;;25.20;62.70;;;;;;5071605;28;20130;-58
2023/03/11 01:46:51;;;;;;;26.92;1.20;;;25.20;62.80;;;;;;5072744;28;20083;-60
2023/03/11 01:49:19;;;;;;;21.88;1.98;;;25.10;63.00;;;;;;5069664;28;20082;-62
2023/03/11 01:51:50;;;;;;;13.68;1.40;;;25.00;63.60;;;;;;5065622;28;20170;-60
2023/03/11 01:54:24;;;;;;;19.23;2.65;;;24.90;63.90;;;;;;5070494;28;20100;-58
2023/03/11 01:56:52;;;;;;;15.55;1.30;;;24.80;64.40;;;;;;5071534;28;20178;-61
2023/03/11 01:59:25;;;;;;;19.08;1.20;;;24.90;64.80;;;;;;5073028;28;20078;-62
2023/03/11 02:02:14;;;;;;;14.90;1.17;;;24.80;65.00;;;;;;5075554;28;20537;-60
2023/03/11 02:04:41;;;;;;;15.45;1.15;;;24.70;65.00;;;;;;5072856;28;20100;-62
2023/03/11 02:07:09;;;;;;;11.20;1.00;;;24.70;65.50;;;;;;5071668;28;21271;-61
2023/03/11 02:09:36;;;;;;;5.45;0.80;;;24.60;65.30;;;;;;5074191;28;20071;-59
2023/03/11 02:12:04;;;;;;;1.52;0.45;;;24.60;65.50;;;;;;5073008;28;20091;-61
2023/03/11 02:14:32;;;;;;;20.52;1.83;;;24.60;65.90;;;;;;5074869;28;20098;-61
2023/03/11 02:16:59;;;;;;;6.25;1.08;;;24.40;66.00;;;;;;5074001;28;20072;-61
2023/03/11 02:20:01;;;;;;;13.15;1.40;;;24.40;66.60;;;;;;5073683;28;20443;-57
2023/03/11 02:22:32;;;;;;;18.50;1.40;;;24.40;66.30;;;;;;5074203;28;20063;-61
2023/03/11 02:25:20;;;;;;;9.00;1.38;;;24.30;66.60;;;;;;5072674;28;20117;-60
2023/03/11 02:27:50;;;;;;;5.55;1.30;;;24.30;66.80;;;;;;5073748;28;20098;-61
2023/03/11 02:30:17;;;;;;;10.23;1.33;;;24.10;67.40;;;;;;5055775;28;20115;-62
2023/03/11 02:32:48;;;;;;;4.78;1.60;;;24.10;67.90;;;;;;5073145;28;20177;-59
2023/03/11 02:35:15;;;;;;;7.80;1.73;;;23.90;68.00;;;;;;5077920;28;20088;-61
2023/03/11 02:37:50;;;;;;;3.97;1.10;;;23.80;68.40;;;;;;5073536;28;20117;-58
2023/03/11 02:40:22;;;;;;;4.20;1.25;;;23.80;68.70;;;;;;5074032;28;20071;-62
2023/03/11 02:42:58;;;;;;;3.10;1.20;;;23.80;68.60;;;;;;5073423;28;20079;-62
2023/03/11 02:45:26;;;;;;;7.43;1.50;;;23.70;69.00;;;;;;5072094;28;20474;-61
2023/03/11 02:47:55;;;;;;;2.60;1.33;;;23.70;68.90;;;;;;5072896;28;20161;-61
2023/03/11 02:50:24;;;;;;;3.15;1.10;;;23.70;69.10;;;;;;5073192;28;20179;-57
2023/03/11 02:52:51;;;;;;;10.98;1.77;;;23.70;69.10;;;;;;5073232;28;20599;-60
2023/03/11 02:55:19;;;;;;;5.85;1.52;;;23.60;69.40;;;;;;5075187;28;20125;-59
2023/03/11 02:57:47;;;;;;;7.00;1.52;;;23.60;69.80;;;;;;5076646;28;20084;-62
2023/03/11 03:00:15;;;;;;;4.85;1.52;;;23.50;70.10;;;;;;5075364;28;20072;-61
2023/03/11 03:02:45;;;;;;;4.07;1.50;;;23.50;70.30;;;;;;5076096;28;20155;-61
2023/03/11 03:05:12;;;;;;;5.78;1.50;;;23.50;70.10;;;;;;5072269;28;20123;-61
2023/03/11 03:07:39;;;;;;;8.77;1.25;;;23.50;70.40;;;;;;5074353;28;20119;-61
2023/03/11 03:10:06;;;;;;;6.22;1.10;;;23.30;70.70;;;;;;5075168;28;20139;-60
2023/03/11 03:12:32;;;;;;;5.97;0.80;;;23.30;71.80;;;;;;5074185;28;20095;-60
2023/03/11 03:14:59;;;;;;;5.50;0.70;;;23.20;71.50;;;;;;5075236;28;20470;-60
2023/03/11 03:17:25;;;;;;;4.63;0.80;;;23.20;71.80;;;;;;5075431;28;20147;-60
2023/03/11 03:19:52;;;;;;;3.65;1.17;;;23.20;72.00;;;;;;5073433;28;20219;-62
2023/03/11 03:22:18;;;;;;;5.40;0.95;;;23.10;72.20;;;;;;5073846;28;20084;-62
2023/03/11 03:24:45;;;;;;;2.63;0.80;;;23.10;72.30;;;;;;5073186;28;20078;-60
2023/03/11 03:27:11;;;;;;;5.50;0.90;;;23.10;72.50;;;;;;5070903;28;20099;-61
2023/03/11 03:29:37;;;;;;;6.03;0.90;;;23.00;72.50;;;;;;5070650;28;20080;-61
2023/03/11 03:32:04;;;;;;;8.93;1.15;;;23.00;72.90;;;;;;5072274;28;20087;-63
2023/03/11 03:34:30;;;;;;;6.50;1.15;;;23.00;72.80;;;;;;5071160;28;20068;-62
2023/03/11 03:36:57;;;;;;;9.60;1.08;;;23.00;73.10;;;;;;5074411;28;20529;-60
2023/03/11 03:39:23;;;;;;;11.65;1.40;;;23.00;73.20;;;;;;5073131;28;20072;-61
2023/03/11 03:41:49;;;;;;;3.17;1.20;;;23.00;73.30;;;;;;5071669;28;20087;-63
2023/03/11 03:44:16;;;;;;;3.88;1.13;;;23.00;73.10;;;;;;5071531;28;20801;-62
2023/03/11 03:46:42;;;;;;;5.15;1.00;;;22.90;73.40;;;;;;5072706;28;20131;-61
2023/03/11 03:49:09;;;;;;;6.35;1.10;;;22.90;73.60;;;;;;5072488;28;20072;-63
2023/03/11 03:51:35;;;;;;;7.97;0.90;;;22.90;73.20;;;;;;5071842;28;20094;-63
2023/03/11 03:54:02;;;;;;;4.80;1.00;;;22.90;73.10;;;;;;5068528;28;20064;-63
2023/03/11 03:56:28;;;;;;;6.07;1.08;;;22.90;72.70;;;;;;5072419;28;20155;-61
2023/03/11 03:58:54;;;;;;;7.78;1.30;;;22.80;72.80;;;;;;5071138;28;20064;-61
2023/03/11 04:01:21;;;;;;;13.93;1.35;;;22.90;72.20;;;;;;5072812;28;20087;-62
2023/03/11 04:03:47;;;;;;;15.40;1.40;;;22.90;72.20;;;;;;5075269;28;20076;-63
2023/03/11 04:06:18;;;;;;;15.95;1.38;;;22.90;71.80;;;;;;5072487;28;20071;-62
2023/03/11 04:08:44;;;;;;;15.95;1.27;;;22.90;71.20;;;;;;5071753;28;20103;-61
2023/03/11 04:11:12;;;;;;;8.68;1.02;;;22.90;71.50;;;;;;5071937;28;20185;-60
2023/03/11 04:13:38;;;;;;;3.40;0.80;;;22.90;70.90;;;;;;5072755;28;20080;-62
2023/03/11 04:16:06;;;;;;;10.27;0.95;;;22.90;71.00;;;;;;5072989;28;20470;-61
2023/03/11 04:18:33;;;;;;;18.20;0.88;;;22.80;71.00;;;;;;5073865;28;20126;-62
2023/03/11 04:21:03;;;;;;;8.63;0.73;;;22.80;71.00;;;;;;5070847;28;20074;-62
2023/03/11 04:23:30;;;;;;;13.48;1.13;;;22.80;71.20;;;;;;5068969;28;20123;-62
2023/03/11 04:25:56;;;;;;;13.05;1.60;;;22.70;71.50;;;;;;5072295;28;20533;-60
2023/03/11 04:28:22;;;;;;;7.32;0.98;;;22.70;71.50;;;;;;5073563;28;20071;-61
2023/03/11 04:30:49;;;;;;;8.02;0.90;;;22.70;71.70;;;;;;5073590;28;20083;-62
2023/03/11 04:33:16;;;;;;;10.02;1.65;;;22.70;71.80;;;;;;5071603;28;20063;-62
2023/03/11 04:35:42;;;;;;;8.05;1.80;;;22.60;72.00;;;;;;5069411;28;20518;-63
2023/03/11 04:38:08;;;;;;;5.18;1.02;;;22.60;71.90;;;;;;5075056;28;20072;-61
2023/03/11 04:40:37;;;;;;;10.75;0.75;;;22.60;72.10;;;;;;5073959;28;20072;-61
2023/03/11 04:43:04;;;;;;;2.65;1.00;;;22.50;72.30;;;;;;5074004;28;20076;-61
2023/03/11 04:45:30;;;;;;;4.72;1.20;;;22.50;72.40;;;;;;5072572;28;20153;-62
2023/03/11 04:47:56;;;;;;;4.00;0.90;;;22.50;72.90;;;;;;5072663;28;20523;-63
2023/03/11 04:50:23;;;;;;;7.25;0.80;;;22.50;73.00;;;;;;5071811;28;20186;-62
2023/03/11 04:52:50;;;;;;;9.02;1.10;;;22.50;73.00;;;;;;5072915;28;20154;-61
2023/03/11 04:55:16;;;;;;;5.13;1.02;;;22.40;73.40;;;;;;5068834;28;20485;-61
2023/03/11 04:57:43;;;;;;;5.60;0.70;;;22.40;73.80;;;;;;5070556;28;20114;-61
2023/03/11 05:00:11;;;;;;;6.38;0.90;;;22.30;73.70;;;;;;5070155;28;20080;-61
2023/03/11 05:02:39;;;;;;;2.05;0.60;;;22.30;73.80;;;;;;5071655;28;20141;-60
2023/03/11 05:05:07;;;;;;;0.73;0.50;;;22.20;73.90;;;;;;5068926;28;20088;-62
2023/03/11 05:07:34;;;;;;;5.55;0.60;;;22.10;73.80;;;;;;5072303;28;20594;-63
2023/03/11 05:10:01;;;;;;;2.33;0.52;;;22.10;74.00;;;;;;5071497;28;20533;-62
2023/03/11 05:12:28;;;;;;;7.40;0.80;;;22.10;74.50;;;;;;5070166;28;20180;-62
2023/03/11 05:14:54;;;;;;;3.38;0.80;;;22.10;74.50;;;;;;5072731;28;20155;-61
2023/03/11 05:17:21;;;;;;;9.48;1.58;;;22.10;74.70;;;;;;5072255;28;20441;-63
2023/03/11 05:19:47;;;;;;;3.40;0.55;;;22.00;75.00;;;;;;5072961;28;20143;-62
2023/03/11 05:22:14;;;;;;;5.32;0.80;;;21.90;75.10;;;;;;5071374;28;20515;-60
2023/03/11 05:24:40;;;;;;;6.95;0.88;;;21.90;75.40;;;;;;5068796;28;20076;-62
2023/03/11 05:27:06;;;;;;;5.07;0.68;;;21.90;75.50;;;;;;5070691;28;20076;-62
2023/03/11 05:29:33;;;;;;;7.80;0.90;;;21.90;75.80;;;;;;5067131;28;20071;-62
2023/03/11 05:31:59;;;;;;;6.90;0.70;;;21.80;75.80;;;;;;5069651;28;20128;-63
2023/03/11 05:34:26;;;;;;;4.68;1.77;;;21.70;76.00;;;;;;5071369;28;20116;-61
2023/03/11 05:36:52;;;;;;;4.18;0.95;;;21.80;76.10;;;;;;5078581;28;20075;-62
2023/03/11 05:39:18;;;;;;;2.28;0.60;;;21.80;76.30;;;;;;5076723;28;20201;-62
2023/03/11 05:41:46;;;;;;;2.72;0.70;;;21.80;75.90;;;;;;5078598;28;20525;-62
2023/03/11 05:44:12;;;;;;;5.28;0.88;;;21.70;75.90;;;;;;5078403;28;20083;-61
2023/03/11 05:46:38;;;;;;;2.88;0.63;;;21.80;76.00;;;;;;5077936;28;20079;-61
2023/03/11 05:49:05;;;;;;;1.33;0.60;;;21.80;75.90;;;;;;5076891;28;20478;-61
2023/03/11 05:51:31;;;;;;;3.88;0.80;;;21.80;75.90;;;;;;5074194;28;20095;-63
2023/03/11 05:53:58;;;;;;;1.60;0.63;;;21.80;75.80;;;;;;5078300;28;20064;-61
2023/03/11 05:56:24;;;;;;;2.88;0.90;;;21.80;75.80;;;;;;5079291;28;20080;-62
2023/03/11 05:58:51;;;;;;;2.75;0.95;;;21.80;75.80;;;;;;5078045;28;20087;-62
2023/03/11 06:01:19;;;;;;;1.55;0.52;;;21.90;75.90;;;;;;5077463;28;20085;-62
2023/03/11 06:03:46;;;;;;;5.85;0.90;;;21.80;75.80;;;;;;5076545;28;20111;-62
2023/03/11 06:06:13;;;;;;;7.55;1.70;;;21.90;75.70;;;;;;5078584;28;20070;-61
2023/03/11 06:08:44;;;;;;;4.55;0.80;;;21.90;76.10;;;;;;5076288;28;20190;-62
2023/03/11 06:11:11;;;;;;;7.70;3.80;;;21.90;76.20;;;;;;5077229;28;20464;-62
2023/03/11 06:13:37;;;;;;;8.85;5.63;;;21.90;76.00;;;;;;5077917;28;20094;-62
2023/03/11 06:16:05;;;;;;;7.00;2.80;;;21.90;76.30;;;;;;5058657;28;20129;-60
2023/03/11 06:18:31;;;;;;;9.68;1.77;;;21.90;76.50;;;;;;5079522;28;20122;-61
2023/03/11 06:20:58;;;;;;;4.32;1.55;;;22.00;76.70;;;;;;5076977;28;20106;-63
2023/03/11 06:23:26;;;;;;;5.60;1.20;;;22.00;76.80;;;;;;5081118;28;21466;-59
2023/03/11 06:26:00;;;;;;;4.82;0.88;;;22.00;76.90;;;;;;5076844;28;20068;-63
2023/03/11 06:28:28;;;;;;;0.63;0.50;;;22.10;77.00;;;;;;5077003;28;20201;-63
2023/03/11 06:30:58;;;;;;;2.90;0.90;;;22.10;76.50;;;;;;5043356;28;20450;-60
2023/03/11 06:33:24;;;;;;;1.70;0.60;;;22.20;76.80;;;;;;5062153;28;20060;-62
2023/03/11 06:36:01;;;;;;;1.98;0.60;;;22.30;75.80;;;;;;5075703;28;20085;-61
2023/03/11 06:38:28;;;;;;;6.22;0.90;;;22.20;75.80;;;;;;5076152;28;20435;-63
2023/03/11 06:40:59;;;;;;;1.10;0.57;;;22.30;76.10;;;;;;5076219;28;20075;-58
2023/03/11 06:43:25;;;;;;;0.90;0.50;;;22.30;76.40;;;;;;5077337;28;20155;-61
2023/03/11 06:45:52;;;;;;;3.50;1.67;;;22.20;76.30;;;;;;5077158;28;20108;-62
2023/03/11 06:48:18;;;;;;;6.43;1.13;;;22.30;76.00;;;;;;5072923;28;20068;-60
2023/03/11 06:50:52;;;;;;;4.60;1.58;;;22.20;76.40;;;;;;5073729;28;20088;-61
2023/03/11 06:53:18;;;;;;;1.08;0.90;;;22.20;76.50;;;;;;5074257;28;20850;-61
2023/03/11 06:55:45;;;;;;;5.43;0.93;;;22.20;76.80;;;;;;5073342;28;20074;-62
2023/03/11 06:58:11;;;;;;;6.93;0.80;;;22.20;77.00;;;;;;5076157;28;20080;-61
2023/03/11 07:00:37;;;;;;;16.20;9.20;;;22.20;77.00;;;;;;5072706;28;20115;-62
2023/03/11 07:03:04;;;;;;;6.53;1.40;;;22.20;77.10;;;;;;5072982;28;20071;-61
2023/03/11 07:05:30;;;;;;;4.65;1.08;;;22.20;77.40;;;;;;5073704;28;20088;-63
2023/03/11 07:07:56;;;;;;;8.07;1.40;;;22.20;77.80;;;;;;5074170;28;20107;-61
2023/03/11 07:10:23;;;;;;;1.92;1.10;;;22.10;77.90;;;;;;5072450;28;20093;-61
2023/03/11 07:12:49;;;;;;;4.20;0.80;;;22.20;78.00;;;;;;5073027;28;20087;-63
2023/03/11 07:15:16;;;;;;;2.67;0.90;;;22.20;78.00;;;;;;5072495;28;20095;-60
2023/03/11 07:17:42;;;;;;;7.82;1.00;;;22.20;78.20;;;;;;5073375;28;20594;-62
2023/03/11 07:20:09;;;;;;;5.35;0.70;;;22.20;78.20;;;;;;5072129;28;20075;-61
2023/03/11 07:22:36;;;;;;;3.00;0.82;;;22.10;78.70;;;;;;5072394;28;20119;-62
2023/03/11 07:25:02;;;;;;;6.70;1.10;;;22.20;78.60;;;;;;5073740;28;20171;-61
2023/03/11 07:27:29;;;;;;;1.85;1.00;;;22.20;78.40;;;;;;5057283;28;20447;-61
2023/03/11 07:29:55;;;;;;;5.00;1.20;;;22.20;78.50;;;;;;5073172;28;20130;-62
2023/03/11 07:32:22;;;;;;;4.80;0.70;;;22.20;78.60;;;;;;5074685;28;20083;-61
2023/03/11 07:34:48;;;;;;;4.47;0.95;;;22.20;78.40;;;;;;5071959;28;20180;-61
2023/03/11 07:37:14;;;;;;;2.42;1.00;;;22.20;78.60;;;;;;5071743;28;20068;-61
2023/03/11 07:39:41;;;;;;;2.92;0.85;;;22.20;78.60;;;;;;5072842;28;20071;-61
2023/03/11 07:42:07;;;;;;;2.67;0.77;;;22.20;78.70;;;;;;5071805;28;20160;-61
2023/03/11 07:44:34;;;;;;;4.53;0.93;;;22.20;78.80;;;;;;5071427;28;20084;-61
2023/03/11 07:47:04;;;;;;;19.50;12.70;;;22.20;79.00;;;;;;5071319;28;20088;-61
2023/03/11 07:49:31;;;;;;;2.03;0.70;;;22.20;79.10;;;;;;5069793;28;20094;-62
2023/03/11 07:51:58;;;;;;;4.35;0.77;;;22.20;79.10;;;;;;5071874;28;20083;-61
2023/03/11 07:54:24;;;;;;;37.00;2.17;;;22.10;78.80;;;;;;5072872;28;20471;-63
2023/03/11 07:56:50;;;;;;;2.13;0.82;;;22.10;79.00;;;;;;5071121;28;20113;-62
2023/03/11 07:59:17;;;;;;;2.38;1.00;;;22.10;79.20;;;;;;5071562;28;20149;-60
2023/03/11 08:01:46;;;;;;;2.50;0.70;;;22.10;79.10;;;;;;5073341;28;20072;-63
2023/03/11 08:04:15;;;;;;;2.75;0.57;;;22.10;79.10;;;;;;5072488;28;20078;-62
2023/03/11 08:06:44;;;;;;;1.63;0.55;;;22.10;79.10;;;;;;5071846;28;20076;-61
2023/03/11 08:09:11;;;;;;;2.78;0.50;;;22.10;78.70;;;;;;5081804;22;20126;-52
2023/03/11 08:11:37;;;;;;;1.25;0.52;;;22.20;78.60;;;;;;5071877;28;20515;-57
2023/03/11 08:14:04;;;;;;;1.17;0.60;;;22.20;78.60;;;;;;5071678;28;20076;-57
2023/03/11 08:16:31;;;;;;;6.22;0.70;;;22.20;78.60;;;;;;5070161;28;20148;-55
2023/03/11 08:18:57;;;;;;;0.65;0.40;;;22.20;78.30;;;;;;5070999;28;20074;-57
2023/03/11 08:21:27;;;;;;;2.63;0.65;;;22.30;78.20;;;;;;5071959;28;20083;-58
2023/03/11 08:23:57;;;;;;;0.98;0.57;;;22.30;78.40;;;;;;5070393;28;20088;-56
2023/03/11 08:26:24;;;;;;;4.75;0.80;;;22.30;78.40;;;;;;5072089;28;20096;-56
2023/03/11 08:28:50;;;;;;;1.17;0.70;;;22.30;78.30;;;;;;5071757;28;20078;-55
2023/03/11 08:31:23;;;;;;;0.98;0.40;;;22.30;78.40;;;;;;5071146;28;20118;-56
2023/03/11 08:33:51;;;;;;;1.85;0.40;;;22.30;78.30;;;;;;5071186;28;20508;-58
2023/03/11 08:36:19;;;;;;;2.20;0.30;;;22.40;77.80;;;;;;5071332;28;20068;-56
2023/03/11 08:38:46;;;;;;;11.00;0.73;;;22.40;77.40;;;;;;5071758;28;20199;-55
2023/03/11 08:41:12;;;;;;;0.43;0.40;;;22.40;77.40;;;;;;5069961;28;20076;-56
2023/03/11 08:43:39;;;;;;;2.35;0.70;;;22.40;77.30;;;;;;5070947;28;20110;-56
2023/03/11 08:46:05;;;;;;;2.47;0.50;;;22.40;77.00;;;;;;5071219;28;20129;-56
2023/03/11 08:48:32;;;;;;;0.90;0.52;;;22.40;77.10;;;;;;5069880;28;20101;-55
2023/03/11 08:50:59;;;;;;;2.80;0.60;;;22.40;77.00;;;;;;5069293;28;20104;-57
2023/03/11 08:53:25;;;;;;;1.95;0.65;;;22.50;76.70;;;;;;5071312;28;20060;-56
2023/03/11 08:55:52;;;;;;;3.40;0.50;;;22.50;76.70;;;;;;5071664;28;20566;-56
2023/03/11 08:58:19;;;;;;;0.82;0.40;;;22.50;76.60;;;;;;5070600;28;20080;-57
2023/03/11 09:00:46;;;;;;;3.53;0.50;;;22.60;76.50;;;;;;5068619;28;20088;-56
2023/03/11 09:03:13;;;;;;;1.95;0.30;;;22.60;76.40;;;;;;5071459;28;20072;-57
2023/03/11 09:05:39;;;;;;;0.38;0.30;;;22.60;76.40;;;;;;5071197;28;20078;-55
2023/03/11 09:08:06;;;;;;;3.28;0.50;;;22.60;76.60;;;;;;5071082;28;20535;-58
2023/03/11 09:10:32;;;;;;;2.13;0.40;;;22.50;76.30;;;;;;5071072;28;20114;-55
2023/03/11 09:12:59;;;;;;;0.95;0.50;;;22.60;76.40;;;;;;5070146;28;20092;-56
2023/03/11 09:15:25;;;;;;;0.90;0.40;;;22.60;76.50;;;;;;5069227;28;20074;-56
2023/03/11 09:17:53;;;;;;;1.23;0.50;;;22.50;76.60;;;;;;5071175;28;20725;-60
2023/03/11 09:20:20;;;;;;;4.57;0.60;;;22.50;76.60;;;;;;5070102;28;20105;-58
2023/03/11 09:22:46;;;;;;;0.57;0.50;;;22.50;76.50;;;;;;5070567;28;20161;-59
2023/03/11 09:25:13;;;;;;;2.50;0.30;;;22.50;76.50;;;;;;5070928;28;20178;-58
2023/03/11 09:27:40;;;;;;;3.30;0.60;;;22.50;76.70;;;;;;5072346;28;20152;-60
2023/03/11 09:30:08;;;;;;;2.17;0.40;;;22.50;76.70;;;;;;5071888;28;20565;-59
2023/03/11 09:32:34;;;;;;;2.92;0.77;;;22.50;76.80;;;;;;5071917;28;20168;-58
2023/03/11 09:35:00;;;;;;;4.35;0.85;;;22.50;76.60;;;;;;5069170;28;20103;-58
2023/03/11 09:37:29;;;;;;;1.85;0.40;;;22.50;77.60;;;;;;5071728;28;20586;-58
2023/03/11 09:39:55;;;;;;;1.13;0.43;;;22.50;77.00;;;;;;5068708;28;20117;-57
2023/03/11 09:42:21;;;;;;;2.08;0.80;;;22.50;77.10;;;;;;5068717;28;20084;-59
2023/03/11 09:44:56;;;;;;;1.80;0.60;;;22.40;77.10;;;;;;5065353;28;20416;-57
2023/03/11 09:47:45;;;;;;;1.58;0.60;;;22.40;77.40;;;;;;5069990;28;20121;-57
2023/03/11 09:50:58;;;;;;;1.33;0.30;;;22.40;77.50;;;;;;5070487;28;20088;-61
2023/03/11 09:53:36;;;;;;;2.55;0.40;;;22.50;77.70;;;;;;5056633;28;20129;-58
2023/03/11 09:56:07;;;;;;;0.20;0.20;;;22.50;78.40;;;;;;5070152;28;20515;-60
2023/03/11 09:58:54;;;;;;;3.05;0.20;;;22.50;77.80;;;;;;5069308;28;20577;-59
2023/03/11 10:01:23;;;;;;;3.45;0.35;;;22.60;77.70;;;;;;5070571;28;20100;-59
2023/03/11 10:03:54;;;;;;;0.93;0.30;;;22.60;77.50;;;;;;5070310;28;20080;-60
2023/03/11 10:06:27;;;;;;;1.13;0.40;;;22.70;77.20;;;;;;5068369;28;20072;-58
2023/03/11 10:09:34;;;;;;;1.15;0.30;;;22.70;77.50;;;;;;5068764;28;20092;-57
2023/03/11 10:12:29;;;;;;;0.32;0.22;;;22.70;77.20;;;;;;5070735;28;20099;-60
2023/03/11 10:15:14;;;;;;;1.67;0.50;;;22.80;77.00;;;;;;5069623;28;20071;-60
2023/03/11 10:17:49;;;;;;;0.85;0.45;;;22.80;77.00;;;;;;5069874;28;20073;-62
2023/03/11 10:20:23;;;;;;;0.30;0.30;;;22.80;77.20;;;;;;5068778;28;20570;-61
2023/03/11 10:23:07;;;;;;;1.05;0.50;;;22.80;77.20;;;;;;5072247;28;20071;-59
2023/03/11 10:25:48;;;;;;;0.95;0.50;;;22.70;76.90;;;;;;5072285;28;20150;-60
2023/03/11 10:28:22;;;;;;;0.40;0.40;;;22.70;77.60;;;;;;5076024;28;20072;-58
2023/03/11 10:31:01;;;;;;;0.40;0.40;;;22.60;77.90;;;;;;5073918;28;20088;-60
2023/03/11 10:33:49;;;;;;;1.85;0.30;;;22.60;77.80;;;;;;5073341;28;20148;-60
2023/03/11 10:36:35;;;;;;;2.42;0.57;;;22.60;77.60;;;;;;5071783;28;20064;-59
2023/03/11 10:39:03;;;;;;;4.38;0.73;;;22.50;77.90;;;;;;5072325;28;20159;-59
2023/03/11 10:41:48;;;;;;;3.10;0.65;;;22.50;78.20;;;;;;5073078;28;21805;-59
2023/03/11 10:44:22;;;;;;;1.10;0.60;;;22.50;78.50;;;;;;5071397;28;20075;-60
2023/03/11 10:46:49;;;;;;;3.00;0.70;;;22.50;78.60;;;;;;5074395;28;20075;-55
2023/03/11 10:49:17;;;;;;;2.80;0.52;;;22.40;78.40;;;;;;5073891;28;20080;-56
2023/03/11 10:51:48;;;;;;;3.22;0.85;;;22.40;78.50;;;;;;5074124;28;20080;-59
2023/03/11 10:54:28;;;;;;;1.73;0.60;;;22.30;79.10;;;;;;5070801;28;20072;-60
2023/03/11 10:57:04;;;;;;;0.98;0.60;;;22.10;79.50;;;;;;5088444;28;20109;-59
2023/03/11 10:59:33;;;;;;;1.08;0.60;;;22.00;80.20;;;;;;5071220;28;20090;-60
2023/03/11 11:02:44;;;;;;;1.90;0.60;;;22.00;80.40;;;;;;5074164;28;20161;-60
2023/03/11 11:05:17;;;;;;;2.88;0.50;;;21.80;80.90;;;;;;5071689;28;20551;-54
2023/03/11 11:07:45;;;;;;;2.05;0.60;;;21.70;81.50;;;;;;5072678;28;20100;-57
2023/03/11 11:10:19;;;;;;;0.32;0.30;;;21.60;81.80;;;;;;5071913;28;20183;-59
2023/03/11 11:12:57;;;;;;;1.65;0.30;;;21.60;82.20;;;;;;5071608;28;20091;-59
2023/03/11 11:15:30;;;;;;;2.60;0.45;;;21.50;82.90;;;;;;5071418;28;20527;-59
2023/03/11 11:18:17;;;;;;;2.80;0.30;;;21.50;83.20;;;;;;5072414;28;20095;-58
2023/03/11 11:21:14;;;;;;;0.50;0.35;;;21.40;83.40;;;;;;5070992;28;20157;-56
2023/03/11 11:23:42;;;;;;;3.28;0.30;;;21.30;83.70;;;;;;5072534;28;20173;-55
2023/03/11 11:26:19;;;;;;;0.35;0.35;;;21.30;84.30;;;;;;5072034;28;20076;-56
2023/03/11 11:28:46;;;;;;;2.50;0.40;;;21.20;84.60;;;;;;5074758;28;20075;-58
2023/03/11 11:31:23;;;;;;;2.78;0.35;;;21.10;84.80;;;;;;5073892;28;20090;-58
2023/03/11 11:33:55;;;;;;;0.88;0.70;;;21.00;85.20;;;;;;5071888;28;20068;-57
2023/03/11 11:36:39;;;;;;;1.70;0.50;;;20.90;85.80;;;;;;5073652;28;20064;-57
2023/03/11 11:39:16;;;;;;;2.30;0.50;;;20.90;85.60;;;;;;5071969;28;20079;-55
2023/03/11 11:41:44;;;;;;;0.57;0.50;;;21.00;85.60;;;;;;5070117;28;20071;-56
2023/03/11 11:44:16;;;;;;;0.30;0.30;;;21.00;85.30;;;;;;5070561;28;20116;-53
2023/03/11 11:46:50;;;;;;;0.75;0.38;;;21.00;85.40;;;;;;5071810;28;20146;-58
2023/03/11 11:49:30;;;;;;;1.25;0.40;;;21.10;85.50;;;;;;5072537;28;20072;-55
2023/03/11 11:52:14;;;;;;;0.73;0.35;;;21.10;85.30;;;;;;5072088;28;20129;-59
2023/03/11 11:55:16;;;;;;;1.60;0.40;;;21.10;85.10;;;;;;5070368;28;20113;-57
2023/03/11 11:57:42;;;;;;;1.02;0.90;;;21.10;85.00;;;;;;5071649;28;20110;-56
2023/03/11 12:00:45;;;;;;;1.88;0.63;;;21.10;84.90;;;;;;5072855;28;20068;-57
2023/03/11 12:03:33;;;;;;;2.78;0.30;;;21.10;85.00;;;;;;5058545;28;20485;-58
2023/03/11 12:06:06;;;;;;;0.47;0.30;;;21.10;85.30;;;;;;5070487;28;20092;-56
2023/03/11 12:08:38;;;;;;;1.75;0.20;;;21.10;85.40;;;;;;5071904;28;20119;-58
2023/03/11 12:11:11;;;;;;;0.85;0.40;;;21.10;85.60;;;;;;5069582;28;20119;-59
2023/03/11 12:13:49;;;;;;;1.25;0.50;;;21.00;85.60;;;;;;5070423;28;20072;-57
2023/03/11 12:16:34;;;;;;;0.50;0.30;;;21.00;85.80;;;;;;5070594;28;20098;-52
2023/03/11 12:19:09;;;;;;;0.40;0.40;;;21.00;85.70;;;;;;5070949;28;20072;-56
2023/03/11 12:21:42;;;;;;;0.45;0.30;;;21.00;86.00;;;;;;5069627;28;20179;-56
2023/03/11 12:24:47;;;;;;;0.20;0.20;;;21.00;85.20;;;;;;5070583;28;20075;-52
2023/03/11 12:27:26;;;;;;;0.70;0.40;;;21.10;84.90;;;;;;5071494;28;20137;-53
2023/03/11 12:29:56;;;;;;;1.33;0.30;;;21.10;85.10;;;;;;5072941;28;20102;-56
2023/03/11 12:32:57;;;;;;;1.58;0.40;;;21.20;85.00;;;;;;5073352;28;20131;-54
2023/03/11 12:35:29;;;;;;;0.30;0.30;;;21.10;85.40;;;;;;5060769;28;20106;-51
2023/03/11 12:38:20;;;;;;;0.20;0.20;;;21.20;85.30;;;;;;5072001;28;20527;-54
2023/03/11 12:41:07;;;;;;;0.82;0.30;;;21.10;85.40;;;;;;5071788;28;20080;-56
2023/03/11 12:43:34;;;;;;;0.68;0.30;;;21.10;85.30;;;;;;5058170;28;20084;-54
2023/03/11 12:46:05;;;;;;;0.80;0.40;;;21.10;84.80;;;;;;5070377;28;20076;-57
2023/03/11 12:48:41;;;;;;;1.38;0.30;;;21.20;84.70;;;;;;5069096;28;20092;-56
2023/03/11 12:51:33;;;;;;;2.45;0.60;;;21.10;85.10;;;;;;5070927;28;20087;-56
2023/03/11 12:54:29;;;;;;;1.35;0.50;;;21.10;85.40;;;;;;5071063;28;20080;-58
2023/03/11 12:57:16;;;;;;;0.65;0.50;;;21.00;85.40;;;;;;5069061;28;20068;-59
2023/03/11 13:00:11;;;;;;;2.67;0.50;;;21.00;85.60;;;;;;5060537;28;20088;-55
2023/03/11 13:03:07;;;;;;;0.57;0.40;;;20.90;86.30;;;;;;5070588;28;20201;-54